sensor_id;sensor_type;location;lat;lon;timestamp;temperature;humidity
75363;DHT22;64122;51.988;5.892;2023-08-06T00:00:09;17.77;71.19
75363;DHT22;64122;51.988;5.892;2023-08-06T00:02:38;17.77;71.29
75363;DHT22;64122;51.988;5.892;2023-08-06T00:05:08;17.76;71.29
75363;DHT22;64122;51.988;5.892;2023-08-06T00:07:37;17.76;71.38
75363;DHT22;64122;51.988;5.892;2023-08-06T00:10:09;17.74;71.25
75363;DHT22;64122;51.988;5.892;2023-08-06T00:12:38;17.75;71.23
75363;DHT22;64122;51.988;5.892;2023-08-06T00:15:09;17.74;71.30
75363;DHT22;64122;51.988;5.892;2023-08-06T00:17:38;17.74;71.38
75363;DHT22;64122;51.988;5.892;2023-08-06T00:20:08;17.76;71.29
75363;DHT22;64122;51.988;5.892;2023-08-06T00:22:37;17.77;71.36
75363;DHT22;64122;51.988;5.892;2023-08-06T00:25:09;17.74;71.48
75363;DHT22;64122;51.988;5.892;2023-08-06T00:27:39;17.75;71.55
75363;DHT22;64122;51.988;5.892;2023-08-06T00:30:09;17.72;71.70
75363;DHT22;64122;51.988;5.892;2023-08-06T00:32:38;17.69;71.88
75363;DHT22;64122;51.988;5.892;2023-08-06T00:35:07;17.68;72.02
75363;DHT22;64122;51.988;5.892;2023-08-06T00:37:37;17.69;72.12
75363;DHT22;64122;51.988;5.892;2023-08-06T00:40:09;17.68;72.19
75363;DHT22;64122;51.988;5.892;2023-08-06T00:42:39;17.70;72.17
75363;DHT22;64122;51.988;5.892;2023-08-06T00:45:10;17.70;72.25
75363;DHT22;64122;51.988;5.892;2023-08-06T00:47:39;17.72;72.22
75363;DHT22;64122;51.988;5.892;2023-08-06T00:50:10;17.74;72.28
75363;DHT22;64122;51.988;5.892;2023-08-06T00:52:39;17.72;72.29
75363;DHT22;64122;51.988;5.892;2023-08-06T00:55:11;17.70;72.25
75363;DHT22;64122;51.988;5.892;2023-08-06T00:57:41;17.69;72.29
75363;DHT22;64122;51.988;5.892;2023-08-06T01:00:11;17.66;72.44
75363;DHT22;64122;51.988;5.892;2023-08-06T01:02:40;17.66;72.37
75363;DHT22;64122;51.988;5.892;2023-08-06T01:05:10;17.60;72.59
75363;DHT22;64122;51.988;5.892;2023-08-06T01:07:47;17.58;72.70
75363;DHT22;64122;51.988;5.892;2023-08-06T01:10:33;17.51;72.89
75363;DHT22;64122;51.988;5.892;2023-08-06T01:13:11;17.45;73.35
75363;DHT22;64122;51.988;5.892;2023-08-06T01:15:50;17.39;73.75
75363;DHT22;64122;51.988;5.892;2023-08-06T01:18:22;17.36;74.15
75363;DHT22;64122;51.988;5.892;2023-08-06T01:20:53;17.31;74.47
75363;DHT22;64122;51.988;5.892;2023-08-06T01:23:23;17.33;74.60
75363;DHT22;64122;51.988;5.892;2023-08-06T01:25:57;17.32;74.75
75363;DHT22;64122;51.988;5.892;2023-08-06T01:28:33;17.30;74.68
75363;DHT22;64122;51.988;5.892;2023-08-06T01:31:20;17.28;74.84
75363;DHT22;64122;51.988;5.892;2023-08-06T01:33:51;17.25;75.08
75363;DHT22;64122;51.988;5.892;2023-08-06T01:36:24;17.28;75.02
75363;DHT22;64122;51.988;5.892;2023-08-06T01:38:54;17.29;75.06
75363;DHT22;64122;51.988;5.892;2023-08-06T01:41:25;17.31;75.02
75363;DHT22;64122;51.988;5.892;2023-08-06T01:43:54;17.33;74.97
75363;DHT22;64122;51.988;5.892;2023-08-06T01:46:23;17.35;74.99
75363;DHT22;64122;51.988;5.892;2023-08-06T01:48:52;17.37;74.94
75363;DHT22;64122;51.988;5.892;2023-08-06T01:51:24;17.38;74.95
75363;DHT22;64122;51.988;5.892;2023-08-06T01:53:53;17.40;74.86
75363;DHT22;64122;51.988;5.892;2023-08-06T01:56:22;17.40;74.85
75363;DHT22;64122;51.988;5.892;2023-08-06T01:58:51;17.41;74.82
75363;DHT22;64122;51.988;5.892;2023-08-06T02:01:21;17.40;74.80
75363;DHT22;64122;51.988;5.892;2023-08-06T02:03:50;17.39;74.80
75363;DHT22;64122;51.988;5.892;2023-08-06T02:06:19;17.41;74.67
75363;DHT22;64122;51.988;5.892;2023-08-06T02:08:51;17.40;74.71
75363;DHT22;64122;51.988;5.892;2023-08-06T02:11:20;17.41;74.75
75363;DHT22;64122;51.988;5.892;2023-08-06T02:13:50;17.40;74.86
75363;DHT22;64122;51.988;5.892;2023-08-06T02:16:19;17.40;74.86
75363;DHT22;64122;51.988;5.892;2023-08-06T02:18:48;17.40;74.96
75363;DHT22;64122;51.988;5.892;2023-08-06T02:21:17;17.40;74.96
75363;DHT22;64122;51.988;5.892;2023-08-06T02:23:47;17.39;75.05
75363;DHT22;64122;51.988;5.892;2023-08-06T02:26:19;17.40;75.10
75363;DHT22;64122;51.988;5.892;2023-08-06T02:28:48;17.44;75.09
75363;DHT22;64122;51.988;5.892;2023-08-06T02:31:17;17.47;74.92
75363;DHT22;64122;51.988;5.892;2023-08-06T02:33:46;17.48;74.87
75363;DHT22;64122;51.988;5.892;2023-08-06T02:36:15;17.50;74.86
75363;DHT22;64122;51.988;5.892;2023-08-06T02:38:45;17.51;74.86
75363;DHT22;64122;51.988;5.892;2023-08-06T02:41:14;17.49;74.95
75363;DHT22;64122;51.988;5.892;2023-08-06T02:43:46;17.51;74.82
75363;DHT22;64122;51.988;5.892;2023-08-06T02:46:15;17.51;74.86
75363;DHT22;64122;51.988;5.892;2023-08-06T02:48:44;17.52;74.73
75363;DHT22;64122;51.988;5.892;2023-08-06T02:51:14;17.53;74.77
75363;DHT22;64122;51.988;5.892;2023-08-06T02:53:44;17.53;74.64
75363;DHT22;64122;51.988;5.892;2023-08-06T02:56:15;17.58;74.67
75363;DHT22;64122;51.988;5.892;2023-08-06T02:59:13;17.55;74.50
75363;DHT22;64122;51.988;5.892;2023-08-06T03:02:02;17.43;74.52
75363;DHT22;64122;51.988;5.892;2023-08-06T03:04:57;17.52;74.42
75363;DHT22;64122;51.988;5.892;2023-08-06T03:07:31;17.52;74.43
75363;DHT22;64122;51.988;5.892;2023-08-06T03:10:09;17.51;74.49
75363;DHT22;64122;51.988;5.892;2023-08-06T03:12:40;17.53;74.45
75363;DHT22;64122;51.988;5.892;2023-08-06T03:15:12;17.50;74.45
75363;DHT22;64122;51.988;5.892;2023-08-06T03:17:43;17.50;74.57
75363;DHT22;64122;51.988;5.892;2023-08-06T03:20:13;17.46;74.73
75363;DHT22;64122;51.988;5.892;2023-08-06T03:22:43;17.45;74.78
75363;DHT22;64122;51.988;5.892;2023-08-06T03:25:12;17.44;74.85
75363;DHT22;64122;51.988;5.892;2023-08-06T03:27:45;17.47;74.81
75363;DHT22;64122;51.988;5.892;2023-08-06T03:30:19;17.47;74.74
75363;DHT22;64122;51.988;5.892;2023-08-06T03:32:50;17.49;74.77
75363;DHT22;64122;51.988;5.892;2023-08-06T03:35:21;17.47;74.80
75363;DHT22;64122;51.988;5.892;2023-08-06T03:37:50;17.47;74.81
75363;DHT22;64122;51.988;5.892;2023-08-06T03:40:20;17.45;74.89
75363;DHT22;64122;51.988;5.892;2023-08-06T03:42:49;17.48;74.88
75363;DHT22;64122;51.988;5.892;2023-08-06T03:45:21;17.48;74.60
75363;DHT22;64122;51.988;5.892;2023-08-06T03:47:50;17.49;74.68
75363;DHT22;64122;51.988;5.892;2023-08-06T03:50:20;17.53;74.58
75363;DHT22;64122;51.988;5.892;2023-08-06T03:52:49;17.56;74.41
75363;DHT22;64122;51.988;5.892;2023-08-06T03:55:18;17.56;74.42
75363;DHT22;64122;51.988;5.892;2023-08-06T03:57:47;17.60;74.34
75363;DHT22;64122;51.988;5.892;2023-08-06T04:00:17;17.59;74.33
75363;DHT22;64122;51.988;5.892;2023-08-06T04:02:54;17.55;74.38
75363;DHT22;64122;51.988;5.892;2023-08-06T04:05:23;17.53;74.45
75363;DHT22;64122;51.988;5.892;2023-08-06T04:07:53;17.50;74.51
75363;DHT22;64122;51.988;5.892;2023-08-06T04:10:22;17.48;74.64
75363;DHT22;64122;51.988;5.892;2023-08-06T04:12:51;17.49;74.60
75363;DHT22;64122;51.988;5.892;2023-08-06T04:15:20;17.49;74.64
75363;DHT22;64122;51.988;5.892;2023-08-06T04:17:50;17.52;74.54
75363;DHT22;64122;51.988;5.892;2023-08-06T04:20:22;17.52;74.53
75363;DHT22;64122;51.988;5.892;2023-08-06T04:22:51;17.56;74.57
75363;DHT22;64122;51.988;5.892;2023-08-06T04:25:21;17.58;74.44
75363;DHT22;64122;51.988;5.892;2023-08-06T04:27:51;17.59;74.35
75363;DHT22;64122;51.988;5.892;2023-08-06T04:30:20;17.63;74.44
75363;DHT22;64122;51.988;5.892;2023-08-06T04:32:46;17.64;74.32
75363;DHT22;64122;51.988;5.892;2023-08-06T04:35:16;17.65;74.31
75363;DHT22;64122;51.988;5.892;2023-08-06T04:37:48;17.61;74.52
75363;DHT22;64122;51.988;5.892;2023-08-06T04:40:17;17.64;74.54
75363;DHT22;64122;51.988;5.892;2023-08-06T04:42:46;17.66;74.54
75363;DHT22;64122;51.988;5.892;2023-08-06T04:45:16;17.69;74.51
75363;DHT22;64122;51.988;5.892;2023-08-06T04:47:45;17.72;74.31
75363;DHT22;64122;51.988;5.892;2023-08-06T04:50:15;17.72;74.27
75363;DHT22;64122;51.988;5.892;2023-08-06T04:52:44;17.72;74.32
75363;DHT22;64122;51.988;5.892;2023-08-06T04:55:16;17.74;74.32
75363;DHT22;64122;51.988;5.892;2023-08-06T04:57:45;17.76;74.24
75363;DHT22;64122;51.988;5.892;2023-08-06T05:00:14;17.81;74.21
75363;DHT22;64122;51.988;5.892;2023-08-06T05:02:43;17.82;74.25
75363;DHT22;64122;51.988;5.892;2023-08-06T05:05:13;17.88;74.13
75363;DHT22;64122;51.988;5.892;2023-08-06T05:07:42;17.93;74.24
75363;DHT22;64122;51.988;5.892;2023-08-06T05:10:11;17.99;73.82
75363;DHT22;64122;51.988;5.892;2023-08-06T05:12:43;18.04;73.77
75363;DHT22;64122;51.988;5.892;2023-08-06T05:15:12;18.08;73.54
75363;DHT22;64122;51.988;5.892;2023-08-06T05:17:41;18.11;73.44
75363;DHT22;64122;51.988;5.892;2023-08-06T05:20:11;18.12;73.36
75363;DHT22;64122;51.988;5.892;2023-08-06T05:22:40;18.17;73.34
75363;DHT22;64122;51.988;5.892;2023-08-06T05:25:12;18.19;73.44
75363;DHT22;64122;51.988;5.892;2023-08-06T05:27:44;18.23;73.28
75363;DHT22;64122;51.988;5.892;2023-08-06T05:30:14;18.28;72.98
75363;DHT22;64122;51.988;5.892;2023-08-06T05:32:43;18.27;73.06
75363;DHT22;64122;51.988;5.892;2023-08-06T05:35:12;18.28;72.91
75363;DHT22;64122;51.988;5.892;2023-08-06T05:37:41;18.25;72.98
75363;DHT22;64122;51.988;5.892;2023-08-06T05:40:10;18.23;72.96
75363;DHT22;64122;51.988;5.892;2023-08-06T05:42:40;18.21;73.02
75363;DHT22;64122;51.988;5.892;2023-08-06T05:45:12;18.20;73.03
75363;DHT22;64122;51.988;5.892;2023-08-06T05:47:41;18.21;73.09
75363;DHT22;64122;51.988;5.892;2023-08-06T05:50:11;18.25;73.07
75363;DHT22;64122;51.988;5.892;2023-08-06T05:52:40;18.26;73.03
75363;DHT22;64122;51.988;5.892;2023-08-06T05:55:09;18.27;73.04
75363;DHT22;64122;51.988;5.892;2023-08-06T05:57:38;18.33;73.13
75363;DHT22;64122;51.988;5.892;2023-08-06T06:00:09;18.39;72.91
75363;DHT22;64122;51.988;5.892;2023-08-06T06:02:43;18.38;72.83
75363;DHT22;64122;51.988;5.892;2023-08-06T06:05:12;18.38;72.77
75363;DHT22;64122;51.988;5.892;2023-08-06T06:07:41;18.36;72.76
75363;DHT22;64122;51.988;5.892;2023-08-06T06:10:11;18.35;72.74
75363;DHT22;64122;51.988;5.892;2023-08-06T06:12:40;18.39;72.64
75363;DHT22;64122;51.988;5.892;2023-08-06T06:15:10;18.36;72.56
75363;DHT22;64122;51.988;5.892;2023-08-06T06:17:39;18.35;72.70
75363;DHT22;64122;51.988;5.892;2023-08-06T06:20:11;18.36;72.75
75363;DHT22;64122;51.988;5.892;2023-08-06T06:22:40;18.42;72.46
75363;DHT22;64122;51.988;5.892;2023-08-06T06:25:09;18.38;72.43
75363;DHT22;64122;51.988;5.892;2023-08-06T06:27:39;18.37;72.50
75363;DHT22;64122;51.988;5.892;2023-08-06T06:30:09;18.36;72.38
75363;DHT22;64122;51.988;5.892;2023-08-06T06:32:38;18.34;72.38
75363;DHT22;64122;51.988;5.892;2023-08-06T06:35:12;18.32;72.37
75363;DHT22;64122;51.988;5.892;2023-08-06T06:37:41;18.32;72.38
75363;DHT22;64122;51.988;5.892;2023-08-06T06:40:11;18.28;72.36
75363;DHT22;64122;51.988;5.892;2023-08-06T06:42:40;18.29;72.66
75363;DHT22;64122;51.988;5.892;2023-08-06T06:45:10;18.33;72.62
75363;DHT22;64122;51.988;5.892;2023-08-06T06:47:39;18.32;72.40
75363;DHT22;64122;51.988;5.892;2023-08-06T06:50:11;18.29;72.58
75363;DHT22;64122;51.988;5.892;2023-08-06T06:52:40;18.33;72.61
75363;DHT22;64122;51.988;5.892;2023-08-06T06:55:10;18.33;72.45
75363;DHT22;64122;51.988;5.892;2023-08-06T06:57:39;18.30;72.69
75363;DHT22;64122;51.988;5.892;2023-08-06T07:00:09;18.27;72.54
75363;DHT22;64122;51.988;5.892;2023-08-06T07:02:38;18.27;72.64
75363;DHT22;64122;51.988;5.892;2023-08-06T07:05:11;18.26;72.70
75363;DHT22;64122;51.988;5.892;2023-08-06T07:07:40;18.25;72.56
75363;DHT22;64122;51.988;5.892;2023-08-06T07:10:10;18.30;72.55
75363;DHT22;64122;51.988;5.892;2023-08-06T07:12:39;18.33;72.51
75363;DHT22;64122;51.988;5.892;2023-08-06T07:15:09;18.34;72.37
75363;DHT22;64122;51.988;5.892;2023-08-06T07:17:38;18.30;72.51
75363;DHT22;64122;51.988;5.892;2023-08-06T07:20:08;18.32;72.69
75363;DHT22;64122;51.988;5.892;2023-08-06T07:22:40;18.38;72.68
75363;DHT22;64122;51.988;5.892;2023-08-06T07:25:09;18.43;72.30
75363;DHT22;64122;51.988;5.892;2023-08-06T07:27:38;18.43;72.38
75363;DHT22;64122;51.988;5.892;2023-08-06T07:30:08;18.42;72.19
75363;DHT22;64122;51.988;5.892;2023-08-06T07:32:37;18.42;72.24
75363;DHT22;64122;51.988;5.892;2023-08-06T07:35:07;18.44;72.22
75363;DHT22;64122;51.988;5.892;2023-08-06T07:37:41;18.47;72.27
75363;DHT22;64122;51.988;5.892;2023-08-06T07:40:11;18.53;72.03
75363;DHT22;64122;51.988;5.892;2023-08-06T07:42:40;18.58;71.82
75363;DHT22;64122;51.988;5.892;2023-08-06T07:45:10;18.64;71.75
75363;DHT22;64122;51.988;5.892;2023-08-06T07:47:39;18.74;71.61
75363;DHT22;64122;51.988;5.892;2023-08-06T07:50:09;18.74;71.58
75363;DHT22;64122;51.988;5.892;2023-08-06T07:52:41;18.77;71.47
75363;DHT22;64122;51.988;5.892;2023-08-06T07:55:10;18.80;71.29
75363;DHT22;64122;51.988;5.892;2023-08-06T07:57:39;18.86;71.45
75363;DHT22;64122;51.988;5.892;2023-08-06T08:00:09;18.96;71.35
75363;DHT22;64122;51.988;5.892;2023-08-06T08:02:41;19.07;71.09
75363;DHT22;64122;51.988;5.892;2023-08-06T08:05:12;19.12;70.63
75363;DHT22;64122;51.988;5.892;2023-08-06T08:07:44;19.16;70.76
75363;DHT22;64122;51.988;5.892;2023-08-06T08:10:13;19.26;70.77
75363;DHT22;64122;51.988;5.892;2023-08-06T08:12:43;19.36;71.10
75363;DHT22;64122;51.988;5.892;2023-08-06T08:15:13;19.47;70.34
75363;DHT22;64122;51.988;5.892;2023-08-06T08:17:43;19.56;70.55
75363;DHT22;64122;51.988;5.892;2023-08-06T08:20:15;19.61;70.16
75363;DHT22;64122;51.988;5.892;2023-08-06T08:22:47;19.63;69.96
75363;DHT22;64122;51.988;5.892;2023-08-06T08:25:16;19.69;69.71
75363;DHT22;64122;51.988;5.892;2023-08-06T08:27:45;19.82;69.74
75363;DHT22;64122;51.988;5.892;2023-08-06T08:30:15;19.87;68.71
75363;DHT22;64122;51.988;5.892;2023-08-06T08:32:44;19.91;68.07
75363;DHT22;64122;51.988;5.892;2023-08-06T08:35:13;19.99;67.91
75363;DHT22;64122;51.988;5.892;2023-08-06T08:37:45;20.12;67.98
75363;DHT22;64122;51.988;5.892;2023-08-06T08:40:15;20.14;66.85
75363;DHT22;64122;51.988;5.892;2023-08-06T08:42:44;20.12;67.66
75363;DHT22;64122;51.988;5.892;2023-08-06T08:45:15;20.18;67.74
75363;DHT22;64122;51.988;5.892;2023-08-06T08:47:44;20.20;67.50
75363;DHT22;64122;51.988;5.892;2023-08-06T08:50:14;20.24;67.32
75363;DHT22;64122;51.988;5.892;2023-08-06T08:52:46;20.27;67.25
75363;DHT22;64122;51.988;5.892;2023-08-06T08:55:15;20.33;67.20
75363;DHT22;64122;51.988;5.892;2023-08-06T08:57:47;20.40;67.52
75363;DHT22;64122;51.988;5.892;2023-08-06T09:00:16;20.48;67.16
75363;DHT22;64122;51.988;5.892;2023-08-06T09:02:45;20.57;67.11
75363;DHT22;64122;51.988;5.892;2023-08-06T09:05:15;20.66;67.16
75363;DHT22;64122;51.988;5.892;2023-08-06T09:07:48;20.79;67.14
75363;DHT22;64122;51.988;5.892;2023-08-06T09:10:19;20.85;66.41
75363;DHT22;64122;51.988;5.892;2023-08-06T09:12:52;20.81;66.04
75363;DHT22;64122;51.988;5.892;2023-08-06T09:15:24;20.78;66.74
75363;DHT22;64122;51.988;5.892;2023-08-06T09:17:53;20.78;67.06
75363;DHT22;64122;51.988;5.892;2023-08-06T09:20:23;20.66;67.33
75363;DHT22;64122;51.988;5.892;2023-08-06T09:22:55;20.46;67.42
75363;DHT22;64122;51.988;5.892;2023-08-06T09:25:25;20.24;67.22
75363;DHT22;64122;51.988;5.892;2023-08-06T09:27:54;20.03;68.03
75363;DHT22;64122;51.988;5.892;2023-08-06T09:30:31;19.91;68.17
75363;DHT22;64122;51.988;5.892;2023-08-06T09:33:01;19.82;68.40
75363;DHT22;64122;51.988;5.892;2023-08-06T09:35:31;19.79;68.69
75363;DHT22;64122;51.988;5.892;2023-08-06T09:38:09;19.77;68.83
75363;DHT22;64122;51.988;5.892;2023-08-06T09:40:39;19.75;69.42
75363;DHT22;64122;51.988;5.892;2023-08-06T09:43:09;19.79;69.87
75363;DHT22;64122;51.988;5.892;2023-08-06T09:45:40;19.86;69.97
75363;DHT22;64122;51.988;5.892;2023-08-06T09:48:10;19.99;69.28
75363;DHT22;64122;51.988;5.892;2023-08-06T09:50:39;20.03;69.30
75363;DHT22;64122;51.988;5.892;2023-08-06T09:53:11;20.06;69.11
75363;DHT22;64122;51.988;5.892;2023-08-06T09:55:41;20.06;69.39
75363;DHT22;64122;51.988;5.892;2023-08-06T09:58:11;20.02;69.25
75363;DHT22;64122;51.988;5.892;2023-08-06T10:00:40;20.03;69.56
75363;DHT22;64122;51.988;5.892;2023-08-06T10:03:10;20.02;69.63
75363;DHT22;64122;51.988;5.892;2023-08-06T10:05:40;19.98;69.26
75363;DHT22;64122;51.988;5.892;2023-08-06T10:08:12;19.89;69.65
75363;DHT22;64122;51.988;5.892;2023-08-06T10:10:42;19.82;69.78
75363;DHT22;64122;51.988;5.892;2023-08-06T10:13:13;19.74;69.87
75363;DHT22;64122;51.988;5.892;2023-08-06T10:15:42;19.65;70.10
75363;DHT22;64122;51.988;5.892;2023-08-06T10:18:13;19.54;70.55
75363;DHT22;64122;51.988;5.892;2023-08-06T10:20:47;19.48;70.55
75363;DHT22;64122;51.988;5.892;2023-08-06T10:23:19;19.39;70.97
75363;DHT22;64122;51.988;5.892;2023-08-06T10:25:53;19.27;71.14
75363;DHT22;64122;51.988;5.892;2023-08-06T10:28:34;19.18;71.36
75363;DHT22;64122;51.988;5.892;2023-08-06T10:31:03;19.10;71.03
75363;DHT22;64122;51.988;5.892;2023-08-06T10:33:43;18.83;70.38
75363;DHT22;64122;51.988;5.892;2023-08-06T10:36:13;18.65;70.33
75363;DHT22;64122;51.988;5.892;2023-08-06T10:38:49;18.51;70.60
75363;DHT22;64122;51.988;5.892;2023-08-06T10:41:23;18.37;70.42
75363;DHT22;64122;51.988;5.892;2023-08-06T10:44:05;18.20;70.61
75363;DHT22;64122;51.988;5.892;2023-08-06T10:46:36;18.09;71.16
75363;DHT22;64122;51.988;5.892;2023-08-06T10:49:05;17.95;71.39
75363;DHT22;64122;51.988;5.892;2023-08-06T10:51:36;17.82;71.51
75363;DHT22;64122;51.988;5.892;2023-08-06T10:54:08;17.77;72.25
75363;DHT22;64122;51.988;5.892;2023-08-06T10:56:40;17.73;72.06
75363;DHT22;64122;51.988;5.892;2023-08-06T10:59:10;17.63;71.97
75363;DHT22;64122;51.988;5.892;2023-08-06T11:01:44;17.56;72.38
75363;DHT22;64122;51.988;5.892;2023-08-06T11:04:13;17.58;72.52
75363;DHT22;64122;51.988;5.892;2023-08-06T11:06:43;17.60;72.34
75363;DHT22;64122;51.988;5.892;2023-08-06T11:09:15;17.53;72.12
75363;DHT22;64122;51.988;5.892;2023-08-06T11:11:44;17.48;72.61
75363;DHT22;64122;51.988;5.892;2023-08-06T11:14:15;17.43;72.91
75363;DHT22;64122;51.988;5.892;2023-08-06T11:16:44;17.44;72.88
75363;DHT22;64122;51.988;5.892;2023-08-06T11:19:13;17.43;73.07
75363;DHT22;64122;51.988;5.892;2023-08-06T11:21:44;17.38;73.00
75363;DHT22;64122;51.988;5.892;2023-08-06T11:24:16;17.32;72.83
75363;DHT22;64122;51.988;5.892;2023-08-06T11:26:46;17.34;73.36
75363;DHT22;64122;51.988;5.892;2023-08-06T11:29:15;17.40;73.28
75363;DHT22;64122;51.988;5.892;2023-08-06T11:31:45;17.39;72.99
75363;DHT22;64122;51.988;5.892;2023-08-06T11:34:15;17.39;72.99
75363;DHT22;64122;51.988;5.892;2023-08-06T11:36:44;17.36;73.36
75363;DHT22;64122;51.988;5.892;2023-08-06T11:39:16;17.36;73.54
75363;DHT22;64122;51.988;5.892;2023-08-06T11:41:45;17.30;73.83
75363;DHT22;64122;51.988;5.892;2023-08-06T11:44:14;17.30;74.06
75363;DHT22;64122;51.988;5.892;2023-08-06T11:46:50;17.29;74.03
75363;DHT22;64122;51.988;5.892;2023-08-06T11:49:37;17.29;73.93
75363;DHT22;64122;51.988;5.892;2023-08-06T11:52:10;17.34;73.98
75363;DHT22;64122;51.988;5.892;2023-08-06T11:54:42;17.19;74.07
75363;DHT22;64122;51.988;5.892;2023-08-06T11:57:11;17.25;74.41
75363;DHT22;64122;51.988;5.892;2023-08-06T11:59:40;17.30;74.13
75363;DHT22;64122;51.988;5.892;2023-08-06T12:02:09;17.29;74.11
75363;DHT22;64122;51.988;5.892;2023-08-06T12:04:57;17.23;74.10
75363;DHT22;64122;51.988;5.892;2023-08-06T12:07:28;17.24;74.18
75363;DHT22;64122;51.988;5.892;2023-08-06T12:10:00;17.21;73.88
75363;DHT22;64122;51.988;5.892;2023-08-06T12:12:29;17.15;74.02
75363;DHT22;64122;51.988;5.892;2023-08-06T12:14:59;17.14;74.06
75363;DHT22;64122;51.988;5.892;2023-08-06T12:17:28;17.10;74.19
75363;DHT22;64122;51.988;5.892;2023-08-06T12:19:57;17.06;74.35
75363;DHT22;64122;51.988;5.892;2023-08-06T12:22:27;17.03;74.38
75363;DHT22;64122;51.988;5.892;2023-08-06T12:25:01;17.01;74.60
75363;DHT22;64122;51.988;5.892;2023-08-06T12:27:33;17.00;74.70
75363;DHT22;64122;51.988;5.892;2023-08-06T12:30:02;16.96;75.02
75363;DHT22;64122;51.988;5.892;2023-08-06T12:32:33;16.93;75.20
75363;DHT22;64122;51.988;5.892;2023-08-06T12:35:03;16.93;75.27
75363;DHT22;64122;51.988;5.892;2023-08-06T12:37:33;16.96;75.34
75363;DHT22;64122;51.988;5.892;2023-08-06T12:40:07;16.96;75.44
75363;DHT22;64122;51.988;5.892;2023-08-06T12:42:37;17.03;75.27
75363;DHT22;64122;51.988;5.892;2023-08-06T12:45:07;17.01;75.24
75363;DHT22;64122;51.988;5.892;2023-08-06T12:47:36;17.00;75.34
75363;DHT22;64122;51.988;5.892;2023-08-06T12:50:07;16.99;75.33
75363;DHT22;64122;51.988;5.892;2023-08-06T12:52:36;17.00;75.23
75363;DHT22;64122;51.988;5.892;2023-08-06T12:55:08;16.96;75.34
75363;DHT22;64122;51.988;5.892;2023-08-06T12:57:38;16.96;75.41
75363;DHT22;64122;51.988;5.892;2023-08-06T13:00:08;16.98;75.23
75363;DHT22;64122;51.988;5.892;2023-08-06T13:02:37;16.95;75.41
75363;DHT22;64122;51.988;5.892;2023-08-06T13:05:06;16.92;75.39
75363;DHT22;64122;51.988;5.892;2023-08-06T13:07:36;16.92;75.51
75363;DHT22;64122;51.988;5.892;2023-08-06T13:10:09;16.93;75.46
75363;DHT22;64122;51.988;5.892;2023-08-06T13:12:38;16.94;75.54
75363;DHT22;64122;51.988;5.892;2023-08-06T13:15:08;16.94;75.41
75363;DHT22;64122;51.988;5.892;2023-08-06T13:17:37;16.91;75.52
75363;DHT22;64122;51.988;5.892;2023-08-06T13:20:07;16.93;75.51
75363;DHT22;64122;51.988;5.892;2023-08-06T13:22:36;16.91;75.61
75363;DHT22;64122;51.988;5.892;2023-08-06T13:25:09;16.94;75.49
75363;DHT22;64122;51.988;5.892;2023-08-06T13:27:38;16.94;75.60
75363;DHT22;64122;51.988;5.892;2023-08-06T13:30:09;16.99;75.50
75363;DHT22;64122;51.988;5.892;2023-08-06T13:32:38;16.94;75.56
75363;DHT22;64122;51.988;5.892;2023-08-06T13:35:07;16.95;75.70
75363;DHT22;64122;51.988;5.892;2023-08-06T13:37:36;16.92;75.79
75363;DHT22;64122;51.988;5.892;2023-08-06T13:40:09;16.92;75.88
75363;DHT22;64122;51.988;5.892;2023-08-06T13:42:39;16.92;75.89
75363;DHT22;64122;51.988;5.892;2023-08-06T13:45:09;16.90;75.86
75363;DHT22;64122;51.988;5.892;2023-08-06T13:47:41;16.90;76.02
75363;DHT22;64122;51.988;5.892;2023-08-06T13:50:10;16.94;76.12
75363;DHT22;64122;51.988;5.892;2023-08-06T13:52:39;17.00;76.10
75363;DHT22;64122;51.988;5.892;2023-08-06T13:55:11;17.05;76.24
75363;DHT22;64122;51.988;5.892;2023-08-06T13:57:40;17.10;75.96
75363;DHT22;64122;51.988;5.892;2023-08-06T14:00:10;17.13;75.86
75363;DHT22;64122;51.988;5.892;2023-08-06T14:02:40;17.18;75.90
75363;DHT22;64122;51.988;5.892;2023-08-06T14:05:10;17.23;75.56
75363;DHT22;64122;51.988;5.892;2023-08-06T14:07:39;17.29;75.66
75363;DHT22;64122;51.988;5.892;2023-08-06T14:10:11;17.35;75.28
75363;DHT22;64122;51.988;5.892;2023-08-06T14:12:40;17.40;75.50
75363;DHT22;64122;51.988;5.892;2023-08-06T14:15:11;17.45;75.34
75363;DHT22;64122;51.988;5.892;2023-08-06T14:17:40;17.47;75.50
75363;DHT22;64122;51.988;5.892;2023-08-06T14:20:10;17.54;75.39
75363;DHT22;64122;51.988;5.892;2023-08-06T14:22:40;17.61;75.21
75363;DHT22;64122;51.988;5.892;2023-08-06T14:25:11;17.59;75.07
75363;DHT22;64122;51.988;5.892;2023-08-06T14:27:41;17.64;75.00
75363;DHT22;64122;51.988;5.892;2023-08-06T14:30:11;17.65;75.17
75363;DHT22;64122;51.988;5.892;2023-08-06T14:32:40;17.69;74.98
75363;DHT22;64122;51.988;5.892;2023-08-06T14:35:09;17.74;74.73
75363;DHT22;64122;51.988;5.892;2023-08-06T14:37:39;17.73;74.97
75363;DHT22;64122;51.988;5.892;2023-08-06T14:40:11;17.77;74.82
75363;DHT22;64122;51.988;5.892;2023-08-06T14:42:41;17.78;74.95
75363;DHT22;64122;51.988;5.892;2023-08-06T14:45:10;17.82;74.94
75363;DHT22;64122;51.988;5.892;2023-08-06T14:47:42;17.83;74.70
75363;DHT22;64122;51.988;5.892;2023-08-06T14:50:11;17.85;74.76
75363;DHT22;64122;51.988;5.892;2023-08-06T14:52:40;17.87;74.66
75363;DHT22;64122;51.988;5.892;2023-08-06T14:55:17;17.85;74.54
75363;DHT22;64122;51.988;5.892;2023-08-06T14:57:47;17.85;74.39
75363;DHT22;64122;51.988;5.892;2023-08-06T15:00:17;17.88;74.60
75363;DHT22;64122;51.988;5.892;2023-08-06T15:02:46;17.89;74.41
75363;DHT22;64122;51.988;5.892;2023-08-06T15:05:16;17.93;74.67
75363;DHT22;64122;51.988;5.892;2023-08-06T15:07:45;18.00;74.38
75363;DHT22;64122;51.988;5.892;2023-08-06T15:10:17;18.03;74.34
75363;DHT22;64122;51.988;5.892;2023-08-06T15:12:46;18.07;74.32
75363;DHT22;64122;51.988;5.892;2023-08-06T15:15:15;18.13;74.33
75363;DHT22;64122;51.988;5.892;2023-08-06T15:17:45;18.14;74.41
75363;DHT22;64122;51.988;5.892;2023-08-06T15:20:14;18.19;74.48
75363;DHT22;64122;51.988;5.892;2023-08-06T15:22:43;18.24;74.28
75363;DHT22;64122;51.988;5.892;2023-08-06T15:25:12;18.25;74.25
75363;DHT22;64122;51.988;5.892;2023-08-06T15:27:44;18.34;74.22
75363;DHT22;64122;51.988;5.892;2023-08-06T15:30:13;18.40;74.07
75363;DHT22;64122;51.988;5.892;2023-08-06T15:32:42;18.47;73.86
75363;DHT22;64122;51.988;5.892;2023-08-06T15:35:12;18.46;73.90
75363;DHT22;64122;51.988;5.892;2023-08-06T15:37:42;18.53;73.96
75363;DHT22;64122;51.988;5.892;2023-08-06T15:40:11;18.62;73.64
75363;DHT22;64122;51.988;5.892;2023-08-06T15:42:40;18.67;73.84
75363;DHT22;64122;51.988;5.892;2023-08-06T15:45:12;18.71;73.41
75363;DHT22;64122;51.988;5.892;2023-08-06T15:47:42;18.74;73.32
75363;DHT22;64122;51.988;5.892;2023-08-06T15:50:11;18.77;73.46